createdAt,value
2022-09-12T00:00:27.395Z,11.77
2022-09-12T00:01:27.463Z,11.79
2022-09-12T00:02:27.468Z,11.81
2022-09-12T00:03:27.357Z,11.81
2022-09-12T00:04:27.363Z,11.81
2022-09-12T00:05:27.334Z,11.77
2022-09-12T00:06:27.326Z,11.74
2022-09-12T00:07:27.327Z,11.69
2022-09-12T00:08:27.299Z,11.67
2022-09-12T00:09:27.286Z,11.66
2022-09-12T00:10:27.269Z,11.67
2022-09-12T00:11:27.263Z,11.64
2022-09-12T00:12:27.248Z,11.69
2022-09-12T00:13:27.360Z,11.72
2022-09-12T00:14:27.219Z,11.74
2022-09-12T00:15:27.208Z,11.75
2022-09-12T00:16:27.213Z,11.72
2022-09-12T00:17:27.183Z,11.69
2022-09-12T00:18:27.169Z,11.69
2022-09-12T00:19:27.181Z,11.66
2022-09-12T00:20:27.163Z,11.63
2022-09-12T00:21:27.130Z,11.60
2022-09-12T00:22:27.120Z,11.54
2022-09-12T00:23:27.101Z,11.51
2022-09-12T00:24:27.092Z,11.48
2022-09-12T00:25:27.110Z,11.45
2022-09-12T00:26:27.062Z,11.42
2022-09-12T00:27:27.054Z,11.44
2022-09-12T00:28:27.043Z,11.44
2022-09-12T00:29:27.023Z,11.53
2022-09-12T00:30:27.015Z,11.57
2022-09-12T00:31:27.114Z,11.57
2022-09-12T00:32:26.993Z,11.59
2022-09-12T00:33:26.974Z,11.57
2022-09-12T00:34:26.964Z,11.51
2022-09-12T00:35:26.948Z,11.53
2022-09-12T00:36:26.949Z,11.51
2022-09-12T00:37:27.047Z,11.51
2022-09-12T00:38:26.915Z,11.49
2022-09-12T00:39:26.916Z,11.49
2022-09-12T00:40:26.887Z,11.48
2022-09-12T00:41:26.878Z,11.48
2022-09-12T00:42:26.867Z,11.46
2022-09-12T00:43:26.878Z,11.42
2022-09-12T00:44:26.838Z,11.39
2022-09-12T00:45:26.854Z,11.38
2022-09-12T00:46:26.808Z,11.36
2022-09-12T00:47:26.801Z,11.35
2022-09-12T00:48:26.789Z,11.31
2022-09-12T00:49:26.800Z,11.33
2022-09-12T00:50:26.810Z,11.33
2022-09-12T00:51:26.750Z,11.33
2022-09-12T00:52:26.739Z,11.30
2022-09-12T00:53:26.721Z,11.33
2022-09-12T00:54:26.716Z,11.38
2022-09-12T00:55:26.801Z,11.42
2022-09-12T00:56:26.692Z,11.49
2022-09-12T00:57:26.672Z,11.60
2022-09-12T00:58:26.674Z,11.63
2022-09-12T00:59:26.652Z,11.64
2022-09-12T01:00:26.635Z,11.63
2022-09-12T01:01:31.711Z,11.59
2022-09-12T01:02:27.625Z,11.56
2022-09-12T01:03:26.595Z,11.53
2022-09-12T01:04:26.597Z,11.48
2022-09-12T01:05:26.572Z,11.45
2022-09-12T01:06:26.566Z,11.42
2022-09-12T01:07:26.574Z,11.38
2022-09-12T01:08:26.545Z,11.36
2022-09-12T01:09:26.523Z,11.35
2022-09-12T01:10:26.515Z,11.31
2022-09-12T01:11:26.496Z,11.28
2022-09-12T01:12:26.490Z,11.28
2022-09-12T01:13:26.586Z,11.31
2022-09-12T01:14:26.457Z,11.35
2022-09-12T01:15:26.444Z,11.36
2022-09-12T01:16:26.464Z,11.36
2022-09-12T01:17:26.420Z,11.35
2022-09-12T01:18:26.409Z,11.33
2022-09-12T01:19:26.420Z,11.33
2022-09-12T01:20:26.389Z,11.28
2022-09-12T01:21:26.369Z,11.23
2022-09-12T01:22:26.372Z,11.27
2022-09-12T01:23:26.357Z,11.28
2022-09-12T01:24:26.330Z,11.28
2022-09-12T01:25:26.350Z,11.26
2022-09-12T01:26:26.310Z,11.26
2022-09-12T01:27:26.301Z,11.24
2022-09-12T01:28:26.287Z,11.23
2022-09-12T01:29:26.279Z,11.21
2022-09-12T01:30:26.262Z,11.19
2022-09-12T01:31:26.352Z,11.19
2022-09-12T01:32:26.281Z,11.23
2022-09-12T01:33:26.220Z,11.20
2022-09-12T01:34:26.205Z,11.19
2022-09-12T01:35:26.193Z,11.20
2022-09-12T01:36:26.184Z,11.23
2022-09-12T01:37:26.185Z,11.20
2022-09-12T01:38:26.164Z,11.20
2022-09-12T01:39:26.144Z,11.20
2022-09-12T01:40:26.135Z,11.19
2022-09-12T01:41:26.114Z,11.20
2022-09-12T01:42:26.115Z,11.23
2022-09-12T01:43:26.116Z,11.23
2022-09-12T01:44:26.076Z,11.23
2022-09-12T01:45:26.153Z,11.23
2022-09-12T01:46:26.057Z,11.23
2022-09-12T01:47:26.046Z,11.24
2022-09-12T01:48:26.027Z,11.23
2022-09-12T01:49:26.137Z,11.20
2022-09-12T01:50:26.018Z,11.20
2022-09-12T01:51:25.988Z,11.17
2022-09-12T01:52:25.978Z,11.13
2022-09-12T01:53:25.961Z,11.12
2022-09-12T01:54:25.958Z,11.08
2022-09-12T01:55:25.967Z,11.05
2022-09-12T01:56:25.932Z,11.03
2022-09-12T01:57:25.918Z,11.02
2022-09-12T01:58:25.900Z,11.02
2022-09-12T01:59:25.890Z,11.01
2022-09-12T02:00:25.881Z,11.01
2022-09-12T02:01:25.917Z,11.01
2022-09-12T02:02:25.885Z,11.05
2022-09-12T02:03:25.840Z,11.05
2022-09-12T02:04:25.849Z,11.02
2022-09-12T02:05:25.814Z,11.01
2022-09-12T02:06:25.824Z,10.98
2022-09-12T02:07:25.830Z,10.95
2022-09-12T02:08:25.774Z,10.93
2022-09-12T02:09:25.772Z,10.95
2022-09-12T02:10:29.160Z,10.98
2022-09-12T02:11:26.741Z,11.01
2022-09-12T02:12:25.725Z,11.02
2022-09-12T02:13:25.734Z,11.02
2022-09-12T02:14:25.704Z,11.01
2022-09-12T02:15:25.695Z,11.01
2022-09-12T02:16:25.711Z,11.02
2022-09-12T02:17:25.666Z,11.01
2022-09-12T02:18:25.648Z,10.98
2022-09-12T02:19:25.756Z,10.99
2022-09-12T02:20:46.850Z,10.95
2022-09-12T02:21:26.617Z,10.95
2022-09-12T02:22:25.602Z,10.95
2022-09-12T02:23:25.587Z,10.98
2022-09-12T02:24:25.573Z,10.95
2022-09-12T02:25:25.580Z,10.98
2022-09-12T02:26:25.548Z,10.98
2022-09-12T02:27:25.538Z,10.95
2022-09-12T02:28:25.521Z,10.95
2022-09-12T02:29:25.520Z,10.94
2022-09-12T02:30:25.551Z,10.93
2022-09-12T02:31:25.624Z,10.93
2022-09-12T02:32:25.469Z,10.91
2022-09-12T02:33:25.460Z,10.90
2022-09-12T02:34:25.448Z,10.87
2022-09-12T02:35:25.440Z,10.87
2022-09-12T02:36:25.421Z,10.86
2022-09-12T02:37:25.441Z,10.84
2022-09-12T02:38:25.401Z,10.84
2022-09-12T02:39:25.399Z,10.87
2022-09-12T02:40:25.410Z,10.86
2022-09-12T02:41:25.364Z,10.87
2022-09-12T02:42:25.354Z,10.86
2022-09-12T02:43:25.375Z,10.84
2022-09-12T02:44:25.324Z,10.83
2022-09-12T02:45:25.315Z,10.84
2022-09-12T02:46:25.314Z,10.83
2022-09-12T02:47:25.294Z,10.83
2022-09-12T02:48:25.276Z,10.83
2022-09-12T02:49:25.286Z,10.81
2022-09-12T02:50:25.245Z,10.80
2022-09-12T02:51:25.239Z,10.80
2022-09-12T02:52:25.227Z,10.81
2022-09-12T02:53:25.217Z,10.88
2022-09-12T02:54:25.196Z,10.94
2022-09-12T02:55:25.217Z,11.02
2022-09-12T02:56:25.178Z,11.08
2022-09-12T02:57:25.158Z,11.11
2022-09-12T02:58:25.147Z,11.09
2022-09-12T02:59:25.144Z,11.11
2022-09-12T03:00:25.118Z,11.11
2022-09-12T03:01:25.190Z,11.12
2022-09-12T03:02:25.132Z,11.09
2022-09-12T03:03:25.091Z,11.09
2022-09-12T03:04:25.069Z,11.09
2022-09-12T03:05:25.059Z,11.11
2022-09-12T03:06:25.049Z,11.13
2022-09-12T03:07:25.060Z,11.20
2022-09-12T03:08:25.032Z,11.27
2022-09-12T03:09:25.010Z,11.35
2022-09-12T03:10:25.000Z,11.35
2022-09-12T03:11:24.990Z,11.35
2022-09-12T03:12:24.973Z,11.33
2022-09-12T03:13:25.081Z,11.30
2022-09-12T03:14:24.950Z,11.27
2022-09-12T03:15:24.933Z,11.23
2022-09-12T03:16:24.973Z,11.21
2022-09-12T03:17:24.933Z,11.19
2022-09-12T03:18:24.894Z,11.16
2022-09-12T03:19:25.007Z,11.12
2022-09-12T03:20:24.875Z,11.11
2022-09-12T03:21:24.855Z,11.09
2022-09-12T03:22:24.864Z,11.08
2022-09-12T03:23:24.835Z,11.08
2022-09-12T03:24:24.823Z,11.09
2022-09-12T03:25:24.845Z,11.09
2022-09-12T03:26:24.796Z,11.08
2022-09-12T03:27:24.786Z,11.08
2022-09-12T03:28:24.769Z,11.09
2022-09-12T03:29:24.765Z,11.09
2022-09-12T03:30:24.802Z,11.09
2022-09-12T03:31:24.770Z,11.09
2022-09-12T03:32:24.729Z,11.06
2022-09-12T03:33:24.709Z,11.06
2022-09-12T03:34:24.698Z,11.05
2022-09-12T03:35:24.688Z,11.03
2022-09-12T03:36:24.673Z,11.05
2022-09-12T03:37:24.689Z,11.08
2022-09-12T03:38:24.655Z,11.06
2022-09-12T03:39:24.646Z,11.08
2022-09-12T03:40:24.623Z,11.06
2022-09-12T03:41:24.612Z,11.06
2022-09-12T03:42:24.600Z,11.06
2022-09-12T03:43:24.612Z,11.08
2022-09-12T03:44:24.572Z,11.05
2022-09-12T03:45:24.561Z,11.03
2022-09-12T03:46:24.544Z,11.05
2022-09-12T03:47:24.533Z,11.06
2022-09-12T03:48:24.523Z,11.03
2022-09-12T03:49:24.542Z,11.02
2022-09-12T03:50:24.492Z,11.01
2022-09-12T03:51:24.484Z,11.01
2022-09-12T03:52:24.464Z,11.05
2022-09-12T03:53:24.465Z,11.06
2022-09-12T03:54:24.455Z,11.03
2022-09-12T03:55:24.464Z,11.03
2022-09-12T03:56:24.425Z,11.03
2022-09-12T03:57:24.416Z,11.02
2022-09-12T03:58:24.395Z,11.03
2022-09-12T03:59:24.387Z,11.02
2022-09-12T04:00:24.367Z,11.02
2022-09-12T04:01:24.537Z,11.06
2022-09-12T04:02:24.375Z,11.11
2022-09-12T04:03:24.348Z,11.20
2022-09-12T04:04:24.326Z,11.24
2022-09-12T04:05:24.320Z,11.28
2022-09-12T04:06:24.349Z,11.30
2022-09-12T04:07:24.411Z,11.27
2022-09-12T04:08:24.332Z,11.26
2022-09-12T04:09:24.259Z,11.21
2022-09-12T04:10:24.248Z,11.19
2022-09-12T04:11:24.238Z,11.16
2022-09-12T04:12:24.219Z,11.11
2022-09-12T04:13:24.237Z,11.06
2022-09-12T04:14:24.200Z,11.01
2022-09-12T04:15:24.189Z,10.95
2022-09-12T04:16:24.200Z,10.91
2022-09-12T04:17:24.167Z,10.87
2022-09-12T04:18:24.141Z,10.83
2022-09-12T04:19:24.252Z,10.81
2022-09-12T04:20:24.130Z,10.80
2022-09-12T04:21:24.102Z,10.76
2022-09-12T04:22:24.093Z,10.78
2022-09-12T04:23:24.083Z,10.88
2022-09-12T04:24:24.063Z,11.02
2022-09-12T04:25:24.083Z,11.03
2022-09-12T04:26:24.047Z,11.02
2022-09-12T04:27:24.036Z,10.98
2022-09-12T04:28:24.024Z,10.91
2022-09-12T04:29:24.012Z,10.88
2022-09-12T04:30:24.101Z,10.87
2022-09-12T04:31:23.995Z,10.86
2022-09-12T04:32:23.976Z,10.84
2022-09-12T04:33:23.957Z,10.86
2022-09-12T04:34:23.946Z,10.87
2022-09-12T04:35:23.945Z,10.86
2022-09-12T04:36:23.918Z,10.84
2022-09-12T04:37:23.937Z,10.83
2022-09-12T04:38:23.888Z,10.80
2022-09-12T04:39:23.878Z,10.78
2022-09-12T04:40:23.898Z,10.80
2022-09-12T04:41:23.860Z,10.83
2022-09-12T04:42:23.849Z,10.90
2022-09-12T04:43:23.863Z,10.99
2022-09-12T04:44:23.828Z,11.05
2022-09-12T04:45:23.810Z,11.05
2022-09-12T04:46:23.798Z,11.05
2022-09-12T04:47:23.781Z,11.02
2022-09-12T04:48:23.769Z,10.98
2022-09-12T04:49:23.916Z,10.94
2022-09-12T04:50:23.741Z,10.94
2022-09-12T04:51:23.730Z,10.90
2022-09-12T04:52:23.721Z,10.91
2022-09-12T04:53:23.718Z,10.95
2022-09-12T04:54:23.692Z,11.01
2022-09-12T04:55:23.820Z,11.01
2022-09-12T04:56:23.675Z,11.01
2022-09-12T04:57:23.653Z,10.98
2022-09-12T04:58:23.642Z,10.94
2022-09-12T04:59:23.632Z,10.91
2022-09-12T05:00:23.623Z,10.93
2022-09-12T05:01:23.675Z,10.93
2022-09-12T05:02:23.630Z,10.94
2022-09-12T05:03:23.584Z,10.93
2022-09-12T05:04:23.567Z,10.98
2022-09-12T05:05:23.565Z,10.99
2022-09-12T05:06:23.554Z,10.99
2022-09-12T05:07:23.565Z,10.99
2022-09-12T05:08:23.516Z,11.05
2022-09-12T05:09:23.506Z,11.11
2022-09-12T05:10:23.507Z,11.16
2022-09-12T05:11:26.564Z,11.17
2022-09-12T05:12:23.467Z,11.16
2022-09-12T05:13:23.489Z,11.16
2022-09-12T05:14:23.445Z,11.16
2022-09-12T05:15:23.437Z,11.19
2022-09-12T05:16:23.500Z,11.17
2022-09-12T05:17:23.408Z,11.20
2022-09-12T05:18:23.388Z,11.21
2022-09-12T05:19:23.508Z,11.20
2022-09-12T05:20:23.369Z,11.20
2022-09-12T05:21:23.358Z,11.20
2022-09-12T05:22:23.340Z,11.21
2022-09-12T05:23:23.332Z,11.21
2022-09-12T05:24:23.318Z,11.28
2022-09-12T05:25:23.340Z,11.33
2022-09-12T05:26:23.291Z,11.41
2022-09-12T05:27:23.285Z,11.46
2022-09-12T05:28:23.274Z,11.46
2022-09-12T05:29:23.256Z,11.51
2022-09-12T05:30:23.266Z,11.56
2022-09-12T05:31:23.251Z,11.60
2022-09-12T05:32:23.223Z,11.64
2022-09-12T05:33:25.081Z,11.64
2022-09-12T05:34:23.193Z,11.66
2022-09-12T05:35:23.193Z,11.66
2022-09-12T05:36:23.166Z,11.66
2022-09-12T05:37:23.175Z,11.69
2022-09-12T05:38:23.155Z,11.74
2022-09-12T05:39:23.133Z,11.78
2022-09-12T05:40:23.115Z,11.84
2022-09-12T05:41:24.967Z,11.88
2022-09-12T05:42:23.093Z,11.93
2022-09-12T05:43:23.119Z,11.94
2022-09-12T05:44:23.073Z,11.96
2022-09-12T05:45:23.067Z,11.97
2022-09-12T05:46:23.037Z,12.03
2022-09-12T05:47:23.027Z,12.04
2022-09-12T05:48:23.048Z,12.11
2022-09-12T05:49:23.128Z,12.12
2022-09-12T05:50:22.998Z,12.15
2022-09-12T05:51:22.981Z,12.16
2022-09-12T05:52:22.959Z,12.25
2022-09-12T05:53:22.959Z,12.34
2022-09-12T05:54:22.939Z,12.44
2022-09-12T05:55:22.950Z,12.51
2022-09-12T05:56:22.912Z,12.58
2022-09-12T05:57:22.901Z,12.62
2022-09-12T05:58:22.890Z,12.66
2022-09-12T05:59:22.887Z,12.70
2022-09-12T06:00:22.862Z,12.74
2022-09-12T06:01:22.936Z,12.77
2022-09-12T06:02:22.871Z,12.84
2022-09-12T06:03:22.863Z,12.88
2022-09-12T06:04:22.822Z,12.92
2022-09-12T06:05:22.802Z,12.96
2022-09-12T06:06:22.784Z,13.01
2022-09-12T06:07:22.812Z,13.04
2022-09-12T06:08:22.765Z,13.07
2022-09-12T06:09:22.752Z,13.10
2022-09-12T06:10:22.744Z,13.14
2022-09-12T06:11:22.725Z,13.19
2022-09-12T06:12:22.744Z,13.25
2022-09-12T06:13:22.727Z,13.29
2022-09-12T06:14:22.686Z,13.36
2022-09-12T06:15:22.676Z,13.43
2022-09-12T06:16:22.703Z,13.48
2022-09-12T06:17:22.647Z,13.53
2022-09-12T06:18:22.637Z,13.59
2022-09-12T06:19:22.647Z,13.62
2022-09-12T06:20:22.608Z,13.69
2022-09-12T06:21:22.598Z,13.73
2022-09-12T06:22:22.588Z,13.80
2022-09-12T06:23:22.578Z,13.86
2022-09-12T06:24:22.559Z,13.90
2022-09-12T06:25:22.582Z,13.87
2022-09-12T06:26:22.538Z,13.86
2022-09-12T06:27:22.529Z,13.90
2022-09-12T06:28:22.518Z,13.94
2022-09-12T06:29:22.508Z,14.02
2022-09-12T06:30:25.484Z,14.04
2022-09-12T06:31:22.611Z,14.02
2022-09-12T06:32:22.461Z,14.11
2022-09-12T06:33:22.452Z,14.12
2022-09-12T06:34:22.433Z,14.12
2022-09-12T06:35:22.420Z,14.20
2022-09-12T06:36:22.419Z,14.26
2022-09-12T06:37:22.423Z,14.31
2022-09-12T06:38:22.384Z,14.39
2022-09-12T06:39:22.403Z,14.36
2022-09-12T06:40:22.417Z,14.39
2022-09-12T06:41:22.358Z,14.41
2022-09-12T06:42:22.345Z,14.44
2022-09-12T06:43:22.356Z,14.48
2022-09-12T06:44:22.306Z,14.54
2022-09-12T06:45:22.297Z,14.57
2022-09-12T06:46:22.378Z,14.56
2022-09-12T06:47:22.283Z,14.57
2022-09-12T06:48:22.267Z,14.56
2022-09-12T06:49:22.379Z,14.60
2022-09-12T06:50:22.234Z,14.64
2022-09-12T06:51:22.227Z,14.64
2022-09-12T06:52:22.208Z,14.67
2022-09-12T06:53:22.229Z,14.63
2022-09-12T06:54:22.189Z,14.66
2022-09-12T06:55:27.094Z,14.64
2022-09-12T06:56:23.159Z,14.71
2022-09-12T06:57:22.150Z,14.75
2022-09-12T06:58:22.132Z,14.82
2022-09-12T06:59:22.120Z,14.86
2022-09-12T07:00:22.121Z,14.78
2022-09-12T07:01:22.159Z,14.67
2022-09-12T07:02:22.174Z,14.66
2022-09-12T07:03:22.072Z,14.71
2022-09-12T07:04:22.053Z,14.79
2022-09-12T07:05:22.064Z,14.82
2022-09-12T07:06:22.043Z,14.93
2022-09-12T07:07:22.033Z,14.90
2022-09-12T07:08:22.026Z,14.91
2022-09-12T07:09:21.995Z,14.98
2022-09-12T07:10:22.509Z,15.01
2022-09-12T07:11:21.967Z,15.09
2022-09-12T07:12:21.957Z,15.16
2022-09-12T07:13:22.068Z,15.25
2022-09-12T07:14:21.937Z,15.20
2022-09-12T07:15:21.916Z,15.23
2022-09-12T07:16:21.944Z,15.25
2022-09-12T07:17:21.987Z,15.33
2022-09-12T07:18:21.877Z,15.37
2022-09-12T07:19:21.891Z,15.44
2022-09-12T07:20:21.858Z,15.52
2022-09-12T07:21:21.845Z,15.53
2022-09-12T07:22:21.829Z,15.58
2022-09-12T07:23:21.819Z,15.60
2022-09-12T07:24:21.799Z,15.64
2022-09-12T07:25:21.922Z,15.68
2022-09-12T07:26:22.729Z,15.66
2022-09-12T07:27:21.761Z,15.68
2022-09-12T07:28:21.752Z,15.58
2022-09-12T07:29:38.008Z,15.59
2022-09-12T07:30:22.873Z,15.67
2022-09-12T07:31:21.703Z,15.76
2022-09-12T07:32:21.693Z,15.77
2022-09-12T07:33:21.693Z,15.80
2022-09-12T07:34:21.674Z,15.85
2022-09-12T07:35:21.654Z,15.81
2022-09-12T07:36:21.795Z,15.88
2022-09-12T07:37:21.624Z,15.95
2022-09-12T07:38:21.628Z,15.96
2022-09-12T07:39:21.617Z,16.06
2022-09-12T07:40:21.624Z,16.13
2022-09-12T07:41:21.583Z,16.18
2022-09-12T07:42:21.594Z,16.27
2022-09-12T07:43:22.513Z,16.32
2022-09-12T07:44:21.601Z,16.34
2022-09-12T07:45:21.539Z,16.34
2022-09-12T07:46:21.550Z,16.33
2022-09-12T07:47:21.510Z,16.33
2022-09-12T07:48:21.540Z,16.36
2022-09-12T07:49:21.508Z,16.30
2022-09-12T07:50:21.497Z,16.22
2022-09-12T07:51:21.460Z,16.26
2022-09-12T07:52:21.441Z,16.30
2022-09-12T07:53:21.440Z,16.27
2022-09-12T07:54:21.442Z,16.33
2022-09-12T07:55:21.407Z,16.51
2022-09-12T07:56:24.051Z,16.67
2022-09-12T07:57:21.385Z,16.77
2022-09-12T07:58:22.193Z,16.88
2022-09-12T07:59:41.412Z,16.98
2022-09-12T08:00:22.474Z,17.15
2022-09-12T08:01:21.348Z,17.28
2022-09-12T08:02:21.377Z,17.32
2022-09-12T08:03:21.306Z,17.38
2022-09-12T08:04:21.316Z,17.46
2022-09-12T08:05:21.284Z,17.49
2022-09-12T08:06:21.308Z,17.53
2022-09-12T08:07:21.256Z,17.63
2022-09-12T08:08:21.282Z,17.66
2022-09-12T08:09:21.276Z,17.57
2022-09-12T08:10:21.227Z,17.65
2022-09-12T08:11:21.226Z,17.71
2022-09-12T08:12:21.332Z,17.73
2022-09-12T08:13:21.209Z,17.84
2022-09-12T08:14:21.169Z,17.92
2022-09-12T08:15:21.149Z,18.02
2022-09-12T08:16:21.157Z,18.09
2022-09-12T08:17:21.141Z,18.14
2022-09-12T08:18:21.308Z,18.26
2022-09-12T08:19:21.610Z,18.21
2022-09-12T08:20:24.287Z,18.25
2022-09-12T08:21:22.082Z,18.31
2022-09-12T08:22:21.062Z,18.32
2022-09-12T08:23:21.047Z,18.41
2022-09-12T08:24:21.064Z,18.44
2022-09-12T08:25:21.024Z,18.49
2022-09-12T08:26:21.015Z,18.57
2022-09-12T08:27:21.031Z,18.60
2022-09-12T08:28:20.995Z,18.62
2022-09-12T08:29:20.976Z,18.66
2022-09-12T08:30:21.019Z,18.62
2022-09-12T08:31:20.956Z,18.49
2022-09-12T08:32:20.952Z,18.56
2022-09-12T08:33:21.757Z,18.60
2022-09-12T08:34:20.907Z,18.65
2022-09-12T08:35:20.898Z,18.69
2022-09-12T08:36:20.907Z,18.74
2022-09-12T08:37:20.886Z,18.60
2022-09-12T08:38:20.861Z,18.65
2022-09-12T08:39:21.359Z,18.72
2022-09-12T08:40:20.962Z,18.71
2022-09-12T08:41:20.818Z,18.84
2022-09-12T08:42:20.895Z,18.93
2022-09-12T08:43:20.845Z,19.02
2022-09-12T08:44:20.792Z,19.01
2022-09-12T08:45:20.773Z,18.96
2022-09-12T08:46:20.804Z,19.05
2022-09-12T08:47:20.745Z,19.13
2022-09-12T08:48:20.793Z,19.13
2022-09-12T08:49:20.714Z,19.10
2022-09-12T08:50:20.789Z,18.99
2022-09-12T08:51:20.695Z,19.06
2022-09-12T08:52:20.687Z,19.12
2022-09-12T08:53:20.676Z,19.20
2022-09-12T08:54:20.709Z,19.25
2022-09-12T08:55:20.646Z,19.31
2022-09-12T08:56:20.650Z,19.40
2022-09-12T08:57:20.656Z,19.49
2022-09-12T08:58:20.628Z,19.58
2022-09-12T08:59:20.598Z,19.65
2022-09-12T09:00:20.618Z,19.55
2022-09-12T09:01:20.626Z,19.57
2022-09-12T09:02:20.593Z,19.53
2022-09-12T09:03:20.560Z,19.62
2022-09-12T09:04:20.530Z,19.62
2022-09-12T09:05:20.510Z,19.72
2022-09-12T09:06:20.531Z,19.82
2022-09-12T09:07:20.492Z,19.87
2022-09-12T09:08:20.500Z,19.92
2022-09-12T09:09:20.462Z,19.90
2022-09-12T09:10:20.462Z,20.00
2022-09-12T09:11:20.462Z,20.01
2022-09-12T09:12:20.452Z,20.01
2022-09-12T09:13:20.583Z,20.02
2022-09-12T09:14:20.403Z,20.04
2022-09-12T09:15:20.385Z,19.97
2022-09-12T09:16:20.430Z,19.90
2022-09-12T09:17:20.365Z,19.94
2022-09-12T09:18:20.496Z,20.01
2022-09-12T09:19:20.344Z,20.07
2022-09-12T09:20:21.165Z,20.08
2022-09-12T09:21:20.316Z,20.15
2022-09-12T09:22:20.327Z,20.10
2022-09-12T09:23:20.287Z,20.12
2022-09-12T09:24:20.298Z,19.92
2022-09-12T09:25:22.876Z,19.83
2022-09-12T09:26:20.249Z,19.92
2022-09-12T09:27:39.357Z,20.05
2022-09-12T09:28:21.359Z,20.23
2022-09-12T09:29:20.210Z,20.46
2022-09-12T09:30:20.248Z,20.66
2022-09-12T09:31:20.279Z,20.79
2022-09-12T09:32:20.171Z,21.03
2022-09-12T09:33:20.161Z,21.26
2022-09-12T09:34:20.152Z,21.58
2022-09-12T09:35:20.133Z,21.77
2022-09-12T09:36:20.264Z,21.81
2022-09-12T09:37:20.114Z,22.09
2022-09-12T09:38:20.163Z,22.35
2022-09-12T09:39:20.087Z,22.42
2022-09-12T09:40:20.122Z,22.39
2022-09-12T09:41:20.058Z,22.27
2022-09-12T09:42:20.079Z,22.20
2022-09-12T09:43:20.550Z,22.14
2022-09-12T09:44:20.986Z,22.06
2022-09-12T09:45:20.018Z,22.11
2022-09-12T09:46:20.060Z,22.15
2022-09-12T09:47:19.989Z,22.14
2022-09-12T09:48:20.168Z,22.15
2022-09-12T09:49:19.972Z,22.19
2022-09-12T09:50:19.949Z,22.23
2022-09-12T09:51:19.930Z,22.17
2022-09-12T09:52:19.935Z,22.23
2022-09-12T09:53:20.711Z,22.23
2022-09-12T09:54:19.946Z,22.23
2022-09-12T09:55:19.882Z,22.20
2022-09-12T09:56:23.172Z,22.19
2022-09-12T09:57:19.866Z,22.15
2022-09-12T09:58:19.853Z,22.21
2022-09-12T09:59:19.858Z,22.24
2022-09-12T10:00:20.042Z,22.30
2022-09-12T10:01:19.845Z,22.26
2022-09-12T10:02:23.789Z,22.29
2022-09-12T10:03:19.791Z,22.27
2022-09-12T10:04:19.776Z,22.26
2022-09-12T10:05:19.770Z,22.26
2022-09-12T10:06:19.794Z,22.27
2022-09-12T10:07:19.735Z,22.23
2022-09-12T10:08:19.747Z,22.14
2022-09-12T10:09:19.710Z,22.06
2022-09-12T10:10:19.706Z,21.96
2022-09-12T10:11:19.688Z,21.91
2022-09-12T10:12:19.694Z,21.86
2022-09-12T10:13:19.669Z,21.67
2022-09-12T10:14:19.656Z,21.59
2022-09-12T10:15:19.639Z,21.58
2022-09-12T10:16:19.647Z,21.64
2022-09-12T10:17:19.622Z,21.68
2022-09-12T10:18:19.633Z,21.71
2022-09-12T10:19:19.613Z,21.82
2022-09-12T10:20:22.063Z,21.83
2022-09-12T10:21:19.563Z,21.89
2022-09-12T10:22:19.554Z,22.01
2022-09-12T10:23:19.537Z,22.11
2022-09-12T10:24:19.557Z,22.12
2022-09-12T10:25:19.516Z,22.02
2022-09-12T10:26:19.496Z,22.01
2022-09-12T10:27:19.486Z,22.09
2022-09-12T10:28:19.484Z,22.21
2022-09-12T10:29:19.464Z,22.29
2022-09-12T10:30:19.587Z,22.38
2022-09-12T10:31:19.463Z,22.39
2022-09-12T10:32:19.428Z,22.41
2022-09-12T10:33:19.409Z,22.48
2022-09-12T10:34:19.447Z,22.48
2022-09-12T10:35:19.380Z,22.39
2022-09-12T10:36:19.411Z,22.42
2022-09-12T10:37:19.369Z,22.39
2022-09-12T10:38:19.363Z,22.52
2022-09-12T10:39:19.333Z,22.57
2022-09-12T10:40:19.385Z,22.56
2022-09-12T10:41:19.313Z,22.59
2022-09-12T10:42:23.289Z,22.61
2022-09-12T10:43:19.300Z,22.59
2022-09-12T10:44:19.275Z,22.67
2022-09-12T10:45:19.263Z,22.75
2022-09-12T10:46:20.283Z,22.79
2022-09-12T10:47:19.235Z,22.66
2022-09-12T10:48:19.266Z,22.69
2022-09-12T10:49:20.176Z,22.74
2022-09-12T10:50:22.794Z,22.81
2022-09-12T10:51:19.188Z,22.88
2022-09-12T10:52:19.185Z,22.94
2022-09-12T10:53:19.169Z,22.89
2022-09-12T10:54:19.278Z,22.96
2022-09-12T10:55:19.149Z,23.01
2022-09-12T10:56:19.121Z,23.01
2022-09-12T10:57:19.111Z,23.11
2022-09-12T10:58:19.109Z,23.16
2022-09-12T10:59:20.244Z,23.19
2022-09-12T11:00:19.099Z,23.22
2022-09-12T11:01:19.265Z,23.23
2022-09-12T11:02:19.086Z,23.09
2022-09-12T11:03:19.042Z,23.09
2022-09-12T11:04:19.026Z,23.14
2022-09-12T11:05:22.551Z,23.16
2022-09-12T11:06:19.040Z,23.21
2022-09-12T11:07:18.985Z,23.23
2022-09-12T11:08:18.995Z,23.21
2022-09-12T11:09:18.965Z,23.19
2022-09-12T11:10:18.945Z,23.19
2022-09-12T11:11:18.936Z,23.09
2022-09-12T11:12:18.948Z,23.09
2022-09-12T11:13:18.907Z,23.12
2022-09-12T11:14:18.897Z,23.11
2022-09-12T11:15:18.895Z,23.21
2022-09-12T11:16:18.915Z,23.23
2022-09-12T11:17:18.870Z,23.34
2022-09-12T11:18:18.911Z,23.39
2022-09-12T11:19:18.852Z,23.44
2022-09-12T11:20:18.821Z,23.53
2022-09-12T11:21:18.812Z,23.62
2022-09-12T11:22:18.803Z,23.71
2022-09-12T11:23:18.793Z,23.72
2022-09-12T11:24:18.923Z,23.62
2022-09-12T11:25:18.763Z,23.42
2022-09-12T11:26:18.750Z,23.45
2022-09-12T11:27:18.742Z,23.35
2022-09-12T11:28:18.725Z,23.34
2022-09-12T11:29:18.714Z,23.38
2022-09-12T11:30:18.836Z,23.42
2022-09-12T11:31:18.714Z,23.44
2022-09-12T11:32:18.675Z,23.50
2022-09-12T11:33:18.667Z,23.59
2022-09-12T11:34:19.446Z,23.69
2022-09-12T11:35:18.637Z,23.78
2022-09-12T11:36:18.773Z,23.89
2022-09-12T11:37:18.626Z,23.94
2022-09-12T11:38:18.653Z,23.97
2022-09-12T11:39:18.590Z,23.97
2022-09-12T11:40:19.427Z,23.99
2022-09-12T11:41:19.352Z,24.06
2022-09-12T11:42:19.504Z,24.09
2022-09-12T11:43:18.860Z,24.14
2022-09-12T11:44:18.524Z,24.11
2022-09-12T11:45:19.302Z,24.15
2022-09-12T11:46:19.333Z,24.14
2022-09-12T11:47:19.293Z,23.97
2022-09-12T11:48:19.283Z,23.87
2022-09-12T11:49:19.255Z,23.94
2022-09-12T11:50:19.251Z,24.00
2022-09-12T11:51:19.230Z,24.16
2022-09-12T11:52:19.226Z,24.27
2022-09-12T11:53:18.538Z,24.30
2022-09-12T11:54:19.216Z,24.34
2022-09-12T11:55:19.182Z,24.29
2022-09-12T11:56:19.269Z,24.15
2022-09-12T11:57:19.160Z,24.19
2022-09-12T11:58:19.144Z,24.26
2022-09-12T11:59:19.129Z,24.36
2022-09-12T12:00:19.148Z,24.33
2022-09-12T12:01:19.779Z,24.33
2022-09-12T12:02:19.110Z,24.48
2022-09-12T12:03:19.119Z,24.59
2022-09-12T12:04:19.064Z,24.63
2022-09-12T12:05:18.398Z,24.63
2022-09-12T12:06:19.083Z,24.56
2022-09-12T12:07:19.738Z,24.60
2022-09-12T12:08:19.022Z,24.66
2022-09-12T12:09:18.633Z,24.82
2022-09-12T12:10:19.002Z,24.92
2022-09-12T12:11:18.193Z,24.98
2022-09-12T12:12:19.003Z,25.05
2022-09-12T12:13:18.173Z,25.19
2022-09-12T12:14:18.155Z,25.26
2022-09-12T12:15:18.146Z,25.01
2022-09-12T12:16:18.201Z,24.86
2022-09-12T12:17:18.120Z,24.77
2022-09-12T12:18:18.925Z,24.84
2022-09-12T12:19:18.086Z,24.77
2022-09-12T12:20:18.078Z,24.53
2022-09-12T12:21:18.108Z,24.26
2022-09-12T12:22:18.050Z,24.27
2022-09-12T12:23:18.040Z,24.29
2022-09-12T12:24:19.008Z,24.41
2022-09-12T12:25:21.587Z,24.56
2022-09-12T12:26:18.791Z,24.70
2022-09-12T12:27:18.011Z,24.84
2022-09-12T12:28:18.051Z,24.89
2022-09-12T12:29:18.162Z,24.82
2022-09-12T12:30:18.084Z,25.02
2022-09-12T12:31:18.807Z,25.17
2022-09-12T12:32:18.731Z,25.30
2022-09-12T12:33:18.717Z,25.46
2022-09-12T12:34:18.695Z,25.54
2022-09-12T12:35:18.685Z,25.57
2022-09-12T12:36:18.730Z,25.57
2022-09-12T12:37:18.665Z,25.75
2022-09-12T12:38:19.475Z,25.94
2022-09-12T12:39:17.856Z,26.06
2022-09-12T12:40:18.689Z,25.97
2022-09-12T12:41:18.217Z,25.96
2022-09-12T12:42:20.708Z,25.86
2022-09-12T12:43:18.081Z,25.75
2022-09-12T12:44:17.918Z,25.74
2022-09-12T12:45:18.549Z,25.86
2022-09-12T12:46:18.582Z,26.03
2022-09-12T12:47:18.547Z,26.16
2022-09-12T12:48:18.632Z,26.17
2022-09-12T12:49:18.524Z,26.27
2022-09-12T12:50:17.852Z,26.31
2022-09-12T12:51:18.485Z,26.31
2022-09-12T12:52:18.477Z,26.19